インディラ・ガンディー国際空港の過去48時間の天気

インディラ・ガンディー国際空港 (Delhi / Palam)

現在時刻: 10/1 21:12 IST (10/1 15:42 UTC) 以下の時間は現地時間です。

過去48時間のMETAR気象情報
時間 風向 風速(m/s) 視程 気温(℃) 湿度(%) 気圧(hPa) 天気現象
1 21:00 静穏 0 2800m 29 52 1005 煙霧
1 20:30 静穏 0 2800m 30 46 1005 煙霧
1 20:00 静穏 0 2800m 31 43 1005 煙霧
1 19:30 2 2800m 32 41 1004 煙霧
1 19:00 2 2800m 32 41 1004 煙霧
1 18:30 北北西 3 3000m 33 38 1004 煙霧
1 18:00 北西 3 3000m 33 34 1004 煙霧
1 17:30 北西 4 3000m 34 30 1004 煙霧
1 17:00 北西 4 3000m 35 28 1004 煙霧
1 16:30 北西 4 3000m 35 27 1004 煙霧
1 16:00 西北西 4 3000m 35 27 1004 煙霧
1 15:30 西北西 5 3000m 36 27 1004 煙霧
1 15:00 北西 4 3000m 36 29 1004 煙霧
1 14:30 西北西 5 3000m 35 34 1005 煙霧
1 14:00 西北西 5 3000m 35 34 1005 煙霧
1 13:30 西北西 4 3000m 35 37 1005 煙霧
1 13:00 西 5 3000m 35 37 1006 煙霧
1 12:30 西北西 5 3000m 35 37 1005 煙霧
1 12:00 西北西 4 3000m 34 41 1006 煙霧
1 11:30 西 4 3000m 34 39 1006 煙霧
1 11:00 西 4 3000m 33 41 1006 煙霧
1 10:30 西 4 3000m 32 46 1007 煙霧
1 10:00 西 3 3000m 31 52 1007 煙霧
1 09:30 西 3 3000m 30 55 1006 煙霧
1 09:00 西 3 3000m 29 58 1006 煙霧
1 08:30 西 3 3000m 27 66 1006 煙霧
1 08:00 西南西 2 3000m 26 70 1006 煙霧
1 07:30 西 2 3000m 25 74 1006 もや
1 07:00 静穏 0 3000m 24 78 1006 もや
1 06:30 静穏 0 3000m 23 83 1005 もや
1 06:00 静穏 0 3000m 23 83 1005 もや
1 05:30 西 2 3000m 23 83 1005 もや
1 05:00 西 2 3000m 23 83 1005 もや
1 04:30 静穏 0 3000m 23 83 1005 もや
1 04:00 静穏 0 3000m 23 83 1005 もや
1 03:30 静穏 0 3000m 24 78 1005 もや
1 03:00 静穏 0 3000m 24 78 1005 もや
1 02:30 静穏 0 3000m 25 74 1005 もや
1 02:00 静穏 0 3000m 25 74 1005 煙霧
1 01:30 静穏 0 3000m 26 70 1005 煙霧
1 01:00 静穏 0 3000m 26 70 1005 煙霧
1 00:30 静穏 0 3000m 26 70 1005 煙霧
1 00:00 静穏 0 3200m 26 70 1006 煙霧
30 23:30 静穏 0 3200m 27 66 1006 煙霧
30 23:00 静穏 0 3200m 28 62 1006 煙霧
30 22:30 静穏 0 3500m 28 62 1006 煙霧
30 22:00 静穏 0 3500m 28 62 1005 煙霧
30 21:30 西北西 2 3500m 28 58 1005 煙霧
30 21:00 3 3500m 29 52 1005 煙霧
30 20:30 北西 3 3500m 30 49 1005 煙霧
30 20:00 北西 2 3500m 31 40 1005 煙霧
30 19:30 北西 2 4000m 31 40 1004 煙霧
30 19:00 北西 3 4000m 31 40 1004 煙霧
30 18:00 西北西 3 4000m 32 38 1004 煙霧
30 17:30 西北西 4 4000m 33 38 1004 煙霧
30 17:00 西北西 5 4000m 34 34 1004 煙霧
30 16:30 西北西 5 4000m 34 34 1004 煙霧
30 16:00 西北西 4 4000m 35 32 1004 煙霧
30 15:30 西北西 4 4000m 35 30 1004 煙霧
30 15:00 西北西 4 4000m 34 32 1004 煙霧
30 14:30 西北西 4 4000m 34 32 1005 煙霧
30 14:00 西北西 4 4000m 34 34 1005 煙霧
30 13:30 西北西 4 4000m 34 36 1006 煙霧
30 13:00 西北西 5 4000m 34 36 1006 煙霧
30 12:30 西北西 5 4000m 34 39 1007 煙霧
30 12:00 西北西 5 4000m 33 41 1007 煙霧
30 11:30 西北西 5 4000m 33 44 1007 煙霧
30 11:00 西北西 5 3500m 32 49 1008 煙霧
30 10:30 西北西 4 2800m 31 52 1008 煙霧
30 10:00 西 4 2800m 30 59 1008 煙霧
30 09:30 西 4 2800m 29 62 1007 煙霧
30 09:00 西 3 2500m 28 66 1007 煙霧
30 08:30 西 3 2200m 27 70 1007 煙霧
30 08:00 西 3 2200m 26 74 1007 煙霧
30 07:30 西 2 1800m 23 89 1006 もや
30 07:00 西 2 1800m 23 89 1006 もや
30 06:30 西 2 2100m 23 89 1006 もや
30 06:00 西 2 2100m 23 89 1005 もや
30 05:30 西南西 2 2500m 23 83 1005 もや
30 05:00 静穏 0 2500m 24 78 1005 もや
30 04:30 西南西 2 2500m 24 83 1005 もや
30 04:00 西 2 2500m 24 83 1005 もや
30 03:30 南西 2 2500m 24 83 1005 もや
30 03:00 西南西 2 2500m 25 78 1005 もや
30 02:30 南南西 2 2700m 25 78 1005 もや
30 02:00 西 2 3000m 26 74 1005 煙霧
30 01:30 西南西 2 3000m 26 74 1005 煙霧
30 01:00 西 2 3000m 27 70 1005 煙霧
30 00:30 西 2 3000m 27 70 1005 煙霧
30 00:00 西北西 2 3000m 28 66 1005 煙霧
29 23:30 西北西 3 3000m 28 66 1006 煙霧
29 23:00 西北西 2 3000m 29 62 1006 煙霧
29 22:30 北西 3 3000m 29 62 1006 煙霧
29 22:00 北西 3 3000m 30 59 1006 煙霧
29 21:30 北西 3 3000m 30 59 1006 煙霧
VIDP 011530Z 00000KT 2800 HZ FEW100 29/18 Q1005 NOSIG
VIDP 011500Z 00000KT 2800 HZ NSC 30/17 Q1005 NOSIG
VIDP 011430Z 00000KT 2800 HZ NSC 31/17 Q1005 NOSIG
VIDP 011400Z 35004KT 2800 HZ NSC 32/17 Q1004 NOSIG
VIDP 011330Z 35004KT 2800 HZ NSC 32/17 Q1004 NOSIG
VIDP 011300Z 33005KT 3000 HZ NSC 33/17 Q1004 NOSIG
VIDP 011230Z 31006KT 3000 HZ NSC 33/15 Q1004 NOSIG
VIDP 011200Z 31007KT 3000 HZ NSC 34/14 Q1004 NOSIG
VIDP 011130Z 31007KT 3000 HZ NSC 35/14 Q1004 NOSIG
VIDP 011100Z 31008KT 3000 HZ NSC 35/13 Q1004 NOSIG
VIDP 011030Z 30008KT 3000 HZ NSC 35/13 Q1004 NOSIG
VIDP 011000Z 30009KT 3000 HZ NSC 36/14 Q1004 NOSIG
VIDP 010930Z 32008G18KT 3000 HZ NSC 36/15 Q1004 NOSIG
VIDP 010900Z 30010KT 3000 HZ NSC 35/17 Q1005 NOSIG
VIDP 010830Z 29009KT 3000 HZ NSC 35/17 Q1005 NOSIG
VIDP 010800Z 29007KT 3000 HZ NSC 35/18 Q1005 NOSIG
VIDP 010730Z 27009KT 3000 HZ NSC 35/18 Q1006 NOSIG
VIDP 010700Z 29010KT 3000 HZ NSC 35/18 Q1005 NOSIG
VIDP 010630Z 29008KT 3000 HZ NSC 34/19 Q1006 NOSIG
VIDP 010600Z 28007KT 3000 HZ NSC 34/18 Q1006 NOSIG
VIDP 010530Z 28008KT 3000 HZ NSC 33/18 Q1006 NOSIG
VIDP 010500Z 27008KT 3000 HZ NSC 32/19 Q1007 NOSIG
VIDP 010430Z 26006KT 3000 HZ NSC 31/20 Q1007 NOSIG
VIDP 010400Z 27006KT 3000 HZ NSC 30/20 Q1006 NOSIG
VIDP 010330Z 27005KT 3000 HZ NSC 29/20 Q1006 NOSIG
VIDP 010300Z 26005KT 3000 HZ NSC 27/20 Q1006 NOSIG
VIDP 010230Z 25004KT 3000 HZ NSC 26/20 Q1006 NOSIG
VIDP 010200Z 27004KT 3000 BR NSC 25/20 Q1006 NOSIG
VIDP 010130Z 00000KT 3000 BR NSC 24/20 Q1006 NOSIG
VIDP 010100Z 00000KT 3000 BR NSC 23/20 Q1005 NOSIG
VIDP 010030Z 00000KT 3000 BR NSC 23/20 Q1005 NOSIG
VIDP 010000Z 27003KT 3000 BR NSC 23/20 Q1005 NOSIG
VIDP 302330Z 27003KT 3000 BR NSC 23/20 Q1005 NOSIG
VIDP 302300Z 00000KT 3000 BR NSC 23/20 Q1005 NOSIG
VIDP 302230Z 00000KT 3000 BR NSC 23/20 Q1005 NOSIG
VIDP 302200Z 00000KT 3000 BR NSC 24/20 Q1005 NOSIG
VIDP 302130Z 00000KT 3000 BR NSC 24/20 Q1005 NOSIG
VIDP 302100Z 00000KT 3000 BR NSC 25/20 Q1005 NOSIG
VIDP 302030Z 00000KT 3000 HZ NSC 25/20 Q1005 NOSIG
VIDP 302000Z 00000KT 3000 HZ NSC 26/20 Q1005 NOSIG
VIDP 301930Z 00000KT 3000 HZ NSC 26/20 Q1005 NOSIG
VIDP 301900Z 00000KT 3000 HZ NSC 26/20 Q1005 NOSIG
VIDP 301830Z 00000KT 3200 HZ NSC 26/20 Q1006 BECMG 3000 HZ
VIDP 301800Z 00000KT 3200 HZ NSC 27/20 Q1006 NOSIG
VIDP 301730Z 00000KT 3200 HZ NSC 28/20 Q1006 NOSIG
VIDP 301700Z 00000KT 3500 HZ NSC 28/20 Q1006 NOSIG
VIDP 301630Z 00000KT 3500 HZ NSC 28/20 Q1005 NOSIG
VIDP 301600Z 30003KT 3500 HZ NSC 28/19 Q1005 NOSIG
VIDP 301530Z 35005KT 3500 HZ NSC 29/18 Q1005 NOSIG
VIDP 301500Z 32005KT 3500 HZ NSC 30/18 Q1005 NOSIG
VIDP 301430Z 32004KT 3500 HZ NSC 31/16 Q1005 NOSIG
VIDP 301400Z 31004KT 4000 HZ NSC 31/16 Q1004 NOSIG
VIDP 301330Z 32005KT 4000 HZ NSC 31/16 Q1004 NOSIG
VIDP 301230Z 30006KT 4000 HZ NSC 32/16 Q1004 NOSIG
VIDP 301200Z 30008G18KT 4000 HZ NSC 33/17 Q1004 NOSIG
VIDP 301130Z 30009G19KT 4000 HZ NSC 34/16 Q1004 NOSIG
VIDP 301100Z 30010G20KT 4000 HZ NSC 34/16 Q1004 NOSIG
VIDP 301030Z 30007G17KT 4000 HZ NSC 35/16 Q1004 NOSIG
VIDP 301000Z 29007G17KT 4000 HZ NSC 35/15 Q1004 NOSIG
VIDP 300930Z 29008G18KT 4000 HZ NSC 34/15 Q1004 NOSIG
VIDP 300900Z 29008G18KT 4000 HZ NSC 34/15 Q1005 NOSIG
VIDP 300830Z 30008G18KT 4000 HZ NSC 34/16 Q1005 NOSIG
VIDP 300800Z 29007G17KT 4000 HZ NSC 34/17 Q1006 NOSIG
VIDP 300730Z 29010KT 4000 HZ NSC 34/17 Q1006 NOSIG
VIDP 300700Z 29010KT 4000 HZ NSC 34/18 Q1007 NOSIG
VIDP 300630Z 30009KT 4000 HZ NSC 33/18 Q1007 NOSIG
VIDP 300600Z 29009KT 4000 HZ NSC 33/19 Q1007 NOSIG
VIDP 300530Z 29009KT 3500 HZ NSC 32/20 Q1008 NOSIG
VIDP 300500Z 29007KT 2800 HZ NSC 31/20 Q1008 BECMG 3000 HZ
VIDP 300430Z 28007KT 2800 HZ NSC 30/21 Q1008 NOSIG
VIDP 300400Z 27007KT 2800 HZ NSC 29/21 Q1007 NOSIG
VIDP 300330Z 27006KT 2500 HZ NSC 28/21 Q1007 NOSIG
VIDP 300300Z 27006KT 2200 HZ NSC 27/21 Q1007 NOSIG
VIDP 300230Z 27005KT 2200 HZ NSC 26/21 Q1007 NOSIG
VIDP 300200Z 27004KT 1800 R28/P2000 R29/P2000 BR NSC 23/21 Q1006 NOSIG
VIDP 300130Z 27004KT 1800 R28/P2000 R29/P2000 BR NSC 23/21 Q1006 NOSIG
VIDP 300100Z 27004KT 2100 BR NSC 23/21 Q1006 NOSIG
VIDP 300030Z 26004KT 2100 BR NSC 23/21 Q1005 NOSIG
VIDP 300000Z 25003KT 2500 BR NSC 23/20 Q1005 NOSIG
VIDP 292330Z 00000KT 2500 BR NSC 24/20 Q1005 NOSIG
VIDP 292300Z 25004KT 2500 BR NSC 24/21 Q1005 NOSIG
VIDP 292230Z 26004KT 2500 BR NSC 24/21 Q1005 NOSIG
VIDP 292200Z 23003KT 2500 BR NSC 24/21 Q1005 NOSIG
VIDP 292130Z 24004KT 2500 BR NSC 25/21 Q1005 NOSIG
VIDP 292100Z 21004KT 2700 BR NSC 25/21 Q1005 NOSIG
VIDP 292030Z 26004KT 3000 HZ NSC 26/21 Q1005 NOSIG
VIDP 292000Z 24004KT 3000 HZ NSC 26/21 Q1005 NOSIG
VIDP 291930Z 26003KT 3000 HZ NSC 27/21 Q1005 NOSIG
VIDP 291900Z 27003KT 3000 HZ NSC 27/21 Q1005 NOSIG
VIDP 291830Z 29003KT 3000 HZ NSC 28/21 Q1005 NOSIG
VIDP 291800Z 30005KT 3000 HZ NSC 28/21 Q1006 NOSIG
VIDP 291730Z 30004KT 3000 HZ NSC 29/21 Q1006 NOSIG
VIDP 291700Z 31005KT 3000 HZ NSC 29/21 Q1006 NOSIG
VIDP 291630Z 31005KT 3000 HZ NSC 30/21 Q1006 NOSIG
VIDP 291600Z 31005KT 3000 HZ NSC 30/21 Q1006 NOSIG